Time;durP1;ratioP1;P1;durP2;ratioP2;P2;SDS_P1;SDS_P2;PMS_P1;PMS_P2;Temp;Humidity;BMP_temperature;BMP_pressure;BME280_temperature;BME280_humidity;BME280_pressure;Samples;Min_cycle;Max_cycle;Signal;HPM_P1;HPM_P2
2022/11/07 00:00:24;;;;;;;1.73;0.93;;;;;;;;;;5012743;28;20081;-67
2022/11/07 00:02:51;;;;;;;1.40;1.00;;;;;;;;;;5012625;28;20108;-66
2022/11/07 00:05:18;;;;;;;2.53;1.00;;;;;;;;;;5012566;28;20501;-68
2022/11/07 00:07:44;;;;;;;1.00;0.85;;;;;;;;;;5012353;28;20144;-68
2022/11/07 00:10:11;;;;;;;1.75;0.93;;;;;;;;;;5012207;28;20088;-69
2022/11/07 00:12:37;;;;;;;1.25;1.15;;;;;;;;;;5012628;28;20081;-68
2022/11/07 00:15:05;;;;;;;1.27;0.80;;;;;;;;;;5012693;28;20096;-68
2022/11/07 00:17:31;;;;;;;1.30;0.93;;;;;;;;;;5012023;28;20548;-67
2022/11/07 00:19:58;;;;;;;1.25;0.80;;;;;;;;;;5011534;28;20054;-68
2022/11/07 00:22:25;;;;;;;1.15;1.00;;;;;;;;;;5012235;28;20049;-67
2022/11/07 00:24:51;;;;;;;1.70;1.00;;;;;;;;;;5012256;28;20081;-68
2022/11/07 00:27:18;;;;;;;1.38;0.80;;;;;;;;;;5012659;28;20081;-67
2022/11/07 00:29:45;;;;;;;1.30;1.00;;;;;;;;;;5011748;28;20056;-68
2022/11/07 00:32:11;;;;;;;3.38;1.13;;;;;;;;;;5012258;28;20104;-68
2022/11/07 00:34:38;;;;;;;1.55;1.00;;;;;;;;;;5012094;28;20390;-66
2022/11/07 00:37:04;;;;;;;3.08;0.93;;;;;;;;;;5012388;28;20054;-67
2022/11/07 00:39:31;;;;;;;1.90;0.80;;;;;;;;;;5011225;28;20982;-67
2022/11/07 00:41:57;;;;;;;2.10;1.58;;;;;;;;;;5012303;28;20084;-67
2022/11/07 00:44:24;;;;;;;1.02;0.93;;;;;;;;;;5012169;28;20054;-67
2022/11/07 00:46:51;;;;;;;1.88;0.90;;;;;;;;;;5011690;28;20571;-68
2022/11/07 00:49:17;;;;;;;3.22;0.80;;;;;;;;;;5011252;28;20046;-68
2022/11/07 00:51:44;;;;;;;0.98;0.88;;;;;;;;;;5012111;28;20256;-68
2022/11/07 00:54:10;;;;;;;2.17;0.93;;;;;;;;;;5011713;28;20089;-67
2022/11/07 00:56:37;;;;;;;1.73;1.02;;;;;;;;;;5011932;28;20049;-68
2022/11/07 00:59:04;;;;;;;2.03;1.15;;;;;;;;;;5011301;28;20050;-68
2022/11/07 01:01:32;;;;;;;1.80;0.88;;;;;;;;;;5011595;28;20049;-67
2022/11/07 01:06:45;;;;;;;1.10;0.57;;;;;;;;;;5013690;28;20057;-68
2022/11/07 01:09:19;;;;;;;0.85;0.75;;;;;;;;;;5015044;28;20038;-65
2022/11/07 01:11:46;;;;;;;1.25;0.65;;;;;;;;;;5015937;28;20054;-67
2022/11/07 01:14:15;;;;;;;1.08;0.70;;;;;;;;;;5015499;28;20056;-67
2022/11/07 01:16:42;;;;;;;0.60;0.60;;;;;;;;;;5030525;28;20049;-68
2022/11/07 01:19:09;;;;;;;0.77;0.75;;;;;;;;;;5015066;28;20112;-68
2022/11/07 01:21:37;;;;;;;0.45;0.45;;;;;;;;;;5015762;28;20079;-67
2022/11/07 01:24:05;;;;;;;1.42;0.82;;;;;;;;;;5021214;28;20038;-68
2022/11/07 01:26:32;;;;;;;1.73;0.80;;;;;;;;;;5024566;28;20049;-68
2022/11/07 01:28:58;;;;;;;2.00;1.00;;;;;;;;;;5014968;28;20050;-68
2022/11/07 01:31:25;;;;;;;1.67;0.90;;;;;;;;;;5015490;28;20080;-68
2022/11/07 01:33:52;;;;;;;1.13;0.63;;;;;;;;;;5015541;28;20054;-67
2022/11/07 01:36:19;;;;;;;1.25;0.70;;;;;;;;;;5015183;28;20050;-67
2022/11/07 01:38:47;;;;;;;0.80;0.73;;;;;;;;;;5014705;28;20116;-66
2022/11/07 01:41:24;;;;;;;0.60;0.50;;;;;;;;;;5015538;28;20069;-67
2022/11/07 01:43:53;;;;;;;1.02;0.75;;;;;;;;;;5015326;28;20483;-68
2022/11/07 01:46:23;;;;;;;1.77;1.08;;;;;;;;;;5015248;28;20100;-68
2022/11/07 01:49:06;;;;;;;1.73;1.05;;;;;;;;;;5014352;28;20485;-67
2022/11/07 01:51:36;;;;;;;0.85;0.68;;;;;;;;;;5013909;28;20483;-67
2022/11/07 01:54:03;;;;;;;1.10;0.73;;;;;;;;;;5013611;28;20093;-68
2022/11/07 01:56:31;;;;;;;4.10;1.23;;;;;;;;;;5013300;28;20054;-67
2022/11/07 01:58:57;;;;;;;1.30;1.00;;;;;;;;;;5013422;28;20485;-68
2022/11/07 02:01:24;;;;;;;2.53;1.02;;;;;;;;;;5014535;28;20103;-67
2022/11/07 02:03:51;;;;;;;1.98;0.75;;;;;;;;;;5013819;28;20057;-68
2022/11/07 02:06:23;;;;;;;2.47;1.33;;;;;;;;;;5014699;28;20100;-67
2022/11/07 02:08:49;;;;;;;1.45;1.10;;;;;;;;;;5028876;28;20049;-68
2022/11/07 02:11:16;;;;;;;2.80;1.10;;;;;;;;;;5029889;28;20053;-68
2022/11/07 02:13:43;;;;;;;2.22;1.00;;;;;;;;;;5029982;28;20050;-67
2022/11/07 02:16:09;;;;;;;1.98;0.95;;;;;;;;;;5014360;28;20076;-68
2022/11/07 02:18:36;;;;;;;1.98;0.88;;;;;;;;;;5012004;28;20042;-68
2022/11/07 02:21:10;;;;;;;2.38;0.80;;;;;;;;;;5013275;28;20057;-67
2022/11/07 02:23:45;;;;;;;1.35;0.90;;;;;;;;;;5013550;28;20061;-67
2022/11/07 02:26:12;;;;;;;1.20;1.08;;;;;;;;;;5000286;28;20053;-67
2022/11/07 02:28:38;;;;;;;2.45;1.10;;;;;;;;;;5012207;28;20057;-68
2022/11/07 02:31:05;;;;;;;2.97;0.90;;;;;;;;;;5029530;28;20463;-67
2022/11/07 02:33:32;;;;;;;1.75;1.05;;;;;;;;;;5014214;28;20045;-67
2022/11/07 02:35:58;;;;;;;1.98;1.15;;;;;;;;;;5014374;28;20513;-68
2022/11/07 02:38:29;;;;;;;1.25;1.02;;;;;;;;;;5012565;28;20058;-67
2022/11/07 02:41:02;;;;;;;2.35;0.93;;;;;;;;;;5012995;28;20057;-68
2022/11/07 02:43:29;;;;;;;2.35;1.13;;;;;;;;;;5028838;28;20050;-68
2022/11/07 02:45:58;;;;;;;2.45;1.00;;;;;;;;;;5029037;28;20054;-67
2022/11/07 02:48:29;;;;;;;1.58;1.02;;;;;;;;;;5028347;28;20401;-68
2022/11/07 02:50:56;;;;;;;1.60;0.88;;;;;;;;;;5014191;28;20468;-67
2022/11/07 02:53:23;;;;;;;3.78;1.10;;;;;;;;;;5013992;28;20050;-68
2022/11/07 02:55:49;;;;;;;3.13;1.10;;;;;;;;;;5013912;28;20096;-67
2022/11/07 02:58:16;;;;;;;3.05;1.20;;;;;;;;;;5013743;28;20556;-69
2022/11/07 03:00:43;;;;;;;1.25;0.95;;;;;;;;;;5013864;28;20054;-68
2022/11/07 03:03:09;;;;;;;1.60;1.13;;;;;;;;;;5013766;28;20108;-67
2022/11/07 03:05:36;;;;;;;1.95;0.90;;;;;;;;;;5013649;28;20050;-68
2022/11/07 03:08:03;;;;;;;3.72;1.10;;;;;;;;;;5012914;28;20058;-68
2022/11/07 03:10:29;;;;;;;1.67;0.95;;;;;;;;;;5013166;28;20575;-66
2022/11/07 03:12:56;;;;;;;1.33;1.00;;;;;;;;;;5013778;28;20077;-67
2022/11/07 03:15:23;;;;;;;2.60;1.25;;;;;;;;;;5013236;28;20049;-67
2022/11/07 03:17:49;;;;;;;2.78;1.10;;;;;;;;;;5012573;28;20559;-68
2022/11/07 03:20:16;;;;;;;2.78;0.85;;;;;;;;;;5013299;28;20092;-68
2022/11/07 03:22:42;;;;;;;2.05;1.08;;;;;;;;;;5013252;28;20049;-68
2022/11/07 03:25:09;;;;;;;1.88;1.17;;;;;;;;;;5013157;28;20464;-69
2022/11/07 03:27:44;;;;;;;2.05;1.00;;;;;;;;;;5013104;28;20049;-68
2022/11/07 03:30:11;;;;;;;1.13;0.85;;;;;;;;;;5025987;28;20057;-69
2022/11/07 03:32:38;;;;;;;1.50;1.00;;;;;;;;;;5013259;28;20061;-68
2022/11/07 03:35:05;;;;;;;2.58;1.05;;;;;;;;;;5013084;28;20397;-67
2022/11/07 03:37:31;;;;;;;3.28;1.02;;;;;;;;;;5013169;28;20053;-68
2022/11/07 03:39:58;;;;;;;1.40;0.80;;;;;;;;;;5012501;28;20046;-67
2022/11/07 03:42:25;;;;;;;2.97;1.08;;;;;;;;;;5013331;28;20046;-68
2022/11/07 03:44:51;;;;;;;2.50;1.00;;;;;;;;;;5012811;28;20057;-68
2022/11/07 03:47:18;;;;;;;3.88;1.25;;;;;;;;;;5012772;28;20046;-68
2022/11/07 03:49:44;;;;;;;1.52;1.00;;;;;;;;;;5012175;28;20046;-67
2022/11/07 03:52:11;;;;;;;2.58;1.10;;;;;;;;;;5013263;28;20096;-68
2022/11/07 03:54:38;;;;;;;1.92;1.00;;;;;;;;;;5012723;28;20497;-67
2022/11/07 03:57:04;;;;;;;1.77;0.90;;;;;;;;;;5012574;28;20077;-68
2022/11/07 03:59:31;;;;;;;4.25;1.02;;;;;;;;;;5007202;28;20112;-68
2022/11/07 04:01:58;;;;;;;1.55;1.08;;;;;;;;;;4993017;28;20050;-68
2022/11/07 04:04:24;;;;;;;1.02;0.80;;;;;;;;;;4993032;28;20093;-68
2022/11/07 04:06:51;;;;;;;1.75;1.15;;;;;;;;;;5012326;28;20115;-67
2022/11/07 04:09:18;;;;;;;2.55;0.80;;;;;;;;;;5011695;28;20092;-67
2022/11/07 04:17:20;;;;;;;1.38;1.00;;;;;;;;;;5012066;28;20052;-65
2022/11/07 04:19:48;;;;;;;1.63;1.08;;;;;;;;;;5011452;28;20046;-66
2022/11/07 04:22:15;;;;;;;3.03;1.27;;;;;;;;;;5012265;28;20255;-65
2022/11/07 04:24:42;;;;;;;2.20;0.90;;;;;;;;;;5012361;28;20061;-65
2022/11/07 04:29:57;;;;;;;3.53;0.70;;;;;;;;;;5011638;28;20042;-65
2022/11/07 04:32:24;;;;;;;1.77;0.93;;;;;;;;;;5012024;28;20046;-67
2022/11/07 04:34:51;;;;;;;1.20;0.93;;;;;;;;;;5011665;28;20528;-67
2022/11/07 04:37:18;;;;;;;3.47;0.80;;;;;;;;;;5012170;28;20133;-67
2022/11/07 04:39:44;;;;;;;1.90;1.17;;;;;;;;;;5011743;28;20440;-67
2022/11/07 04:42:11;;;;;;;1.85;0.90;;;;;;;;;;5011840;28;20054;-66
2022/11/07 04:44:38;;;;;;;2.15;1.05;;;;;;;;;;5011894;28;20072;-68
2022/11/07 04:47:04;;;;;;;2.47;0.90;;;;;;;;;;5011843;28;20507;-67
2022/11/07 04:49:31;;;;;;;1.38;0.90;;;;;;;;;;5011744;28;20095;-67
2022/11/07 04:51:58;;;;;;;3.15;0.93;;;;;;;;;;5011780;28;20061;-67
2022/11/07 04:54:24;;;;;;;1.98;1.00;;;;;;;;;;5011865;28;20056;-67
2022/11/07 04:56:51;;;;;;;5.00;1.00;;;;;;;;;;5011825;28;20054;-66
2022/11/07 04:59:18;;;;;;;1.73;0.80;;;;;;;;;;5011286;28;20058;-67
2022/11/07 05:01:44;;;;;;;1.50;1.35;;;;;;;;;;5011881;28;20056;-67
2022/11/07 05:04:11;;;;;;;3.03;0.93;;;;;;;;;;5011662;28;20062;-67
2022/11/07 05:06:38;;;;;;;1.85;0.90;;;;;;;;;;5011549;28;20053;-67
2022/11/07 05:09:04;;;;;;;2.72;1.00;;;;;;;;;;5011218;28;20046;-66
2022/11/07 05:11:31;;;;;;;1.08;0.90;;;;;;;;;;5011881;28;20056;-66
2022/11/07 05:13:58;;;;;;;4.15;1.10;;;;;;;;;;5011869;28;20096;-67
2022/11/07 05:16:24;;;;;;;2.78;1.30;;;;;;;;;;5011265;28;20381;-67
2022/11/07 05:18:51;;;;;;;2.10;1.00;;;;;;;;;;5001791;28;20505;-67
2022/11/07 05:21:18;;;;;;;4.80;1.40;;;;;;;;;;4992260;28;20046;-66
2022/11/07 05:23:44;;;;;;;4.63;1.27;;;;;;;;;;4992249;28;20493;-66
2022/11/07 05:26:11;;;;;;;4.70;1.40;;;;;;;;;;4992475;28;20054;-68
2022/11/07 05:28:37;;;;;;;5.18;1.88;;;;;;;;;;4991074;28;20089;-67
2022/11/07 05:31:06;;;;;;;4.13;1.42;;;;;;;;;;4991782;28;20043;-67
2022/11/07 05:33:33;;;;;;;1.95;1.10;;;;;;;;;;4992199;28;20050;-66
2022/11/07 05:36:18;;;;;;;4.10;1.65;;;;;;;;;;5008655;28;20519;-66
2022/11/07 05:38:47;;;;;;;3.15;1.92;;;;;;;;;;5011044;28;20050;-66
2022/11/07 05:41:15;;;;;;;4.18;1.48;;;;;;;;;;5011502;28;20113;-66
2022/11/07 05:43:41;;;;;;;4.72;1.83;;;;;;;;;;5011430;28;20053;-68
2022/11/07 05:46:08;;;;;;;5.93;1.67;;;;;;;;;;5011558;28;20054;-66
2022/11/07 05:48:35;;;;;;;3.95;1.30;;;;;;;;;;5010880;28;20057;-66
2022/11/07 05:51:03;;;;;;;3.08;1.60;;;;;;;;;;5011160;28;20057;-66
2022/11/07 05:53:29;;;;;;;3.63;1.45;;;;;;;;;;5013061;28;20561;-66
2022/11/07 05:55:56;;;;;;;4.82;1.35;;;;;;;;;;5014702;28;20054;-67
2022/11/07 05:58:23;;;;;;;3.60;1.25;;;;;;;;;;5014513;28;20100;-66
2022/11/07 06:00:50;;;;;;;3.78;2.10;;;;;;;;;;5014652;28;20049;-68
2022/11/07 06:03:18;;;;;;;3.53;1.75;;;;;;;;;;5014864;28;20086;-66
2022/11/07 06:05:46;;;;;;;3.85;1.70;;;;;;;;;;5015081;28;20052;-67
2022/11/07 06:08:13;;;;;;;3.90;1.48;;;;;;;;;;5014204;28;20107;-66
2022/11/07 06:10:40;;;;;;;4.63;2.00;;;;;;;;;;5012709;28;20509;-66
2022/11/07 06:13:10;;;;;;;3.78;2.17;;;;;;;;;;4993869;28;20050;-67
2022/11/07 06:15:37;;;;;;;3.63;2.20;;;;;;;;;;4995208;28;20537;-66
2022/11/07 06:18:06;;;;;;;3.75;2.20;;;;;;;;;;5007733;28;20045;-66
2022/11/07 06:20:33;;;;;;;3.33;1.90;;;;;;;;;;5014202;28;20038;-68
2022/11/07 06:23:01;;;;;;;6.43;2.25;;;;;;;;;;5007750;28;20046;-66
2022/11/07 06:25:28;;;;;;;5.68;2.50;;;;;;;;;;5002515;28;20049;-66
2022/11/07 06:27:59;;;;;;;4.82;1.48;;;;;;;;;;5009650;28;20053;-68
2022/11/07 06:30:26;;;;;;;3.42;1.58;;;;;;;;;;5013843;28;20049;-67
2022/11/07 06:32:53;;;;;;;3.55;1.77;;;;;;;;;;5014311;28;20562;-67
2022/11/07 06:35:19;;;;;;;5.20;2.40;;;;;;;;;;5014239;28;20054;-66
2022/11/07 06:37:46;;;;;;;3.88;1.23;;;;;;;;;;5013656;28;20112;-68
2022/11/07 06:40:13;;;;;;;2.85;1.52;;;;;;;;;;5014029;28;20053;-67
2022/11/07 06:42:39;;;;;;;4.53;1.95;;;;;;;;;;5011146;28;20050;-66
2022/11/07 06:45:06;;;;;;;7.00;2.17;;;;;;;;;;5012090;28;20104;-66
2022/11/07 06:47:33;;;;;;;3.60;1.80;;;;;;;;;;5011924;28;20575;-66
2022/11/07 06:49:59;;;;;;;3.78;1.55;;;;;;;;;;5011212;28;20421;-65
2022/11/07 06:52:27;;;;;;;4.40;1.80;;;;;;;;;;5011710;28;20061;-65
2022/11/07 06:54:53;;;;;;;3.45;1.77;;;;;;;;;;5011579;28;20112;-66
2022/11/07 06:57:20;;;;;;;4.07;1.98;;;;;;;;;;5011605;28;20066;-65
2022/11/07 06:59:46;;;;;;;4.97;1.85;;;;;;;;;;5011070;28;20046;-65
2022/11/07 07:02:17;;;;;;;5.53;1.80;;;;;;;;;;5026309;28;20053;-67
2022/11/07 07:05:04;;;;;;;3.72;1.50;;;;;;;;;;5011464;28;20058;-65
2022/11/07 07:07:31;;;;;;;3.65;1.50;;;;;;;;;;5010966;28;20049;-65
2022/11/07 07:09:57;;;;;;;3.00;1.38;;;;;;;;;;5010896;28;20046;-66
2022/11/07 07:12:25;;;;;;;5.07;1.60;;;;;;;;;;5011443;28;20050;-65
2022/11/07 07:14:52;;;;;;;3.85;2.05;;;;;;;;;;5010847;28;20111;-66
2022/11/07 07:17:18;;;;;;;2.90;1.38;;;;;;;;;;5010036;28;20050;-66
2022/11/07 07:19:45;;;;;;;2.33;1.30;;;;;;;;;;5010310;28;20053;-68
2022/11/07 07:22:15;;;;;;;3.10;1.30;;;;;;;;;;5011063;28;20432;-64
2022/11/07 07:24:42;;;;;;;5.10;1.58;;;;;;;;;;5011724;28;20072;-67
2022/11/07 07:27:09;;;;;;;4.22;1.95;;;;;;;;;;5011186;28;20056;-68
2022/11/07 07:29:36;;;;;;;4.60;2.00;;;;;;;;;;5011962;28;20049;-67
2022/11/07 07:32:02;;;;;;;3.85;1.60;;;;;;;;;;5012858;28;20537;-67
2022/11/07 07:34:29;;;;;;;4.60;1.58;;;;;;;;;;5012833;28;20046;-67
2022/11/07 07:36:55;;;;;;;2.45;1.25;;;;;;;;;;5012997;28;20100;-66
2022/11/07 07:39:23;;;;;;;3.42;1.92;;;;;;;;;;5011910;28;20049;-68
2022/11/07 07:41:50;;;;;;;3.63;1.33;;;;;;;;;;5013520;28;20045;-67
2022/11/07 07:44:16;;;;;;;3.83;1.65;;;;;;;;;;5012753;28;20049;-68
2022/11/07 07:46:43;;;;;;;5.00;1.85;;;;;;;;;;5013020;28;20062;-66
2022/11/07 07:49:10;;;;;;;6.78;2.00;;;;;;;;;;5012394;28;20042;-67
2022/11/07 07:51:36;;;;;;;4.82;2.13;;;;;;;;;;5013332;28;20088;-67
2022/11/07 07:54:03;;;;;;;6.07;2.00;;;;;;;;;;5013210;28;20053;-66
2022/11/07 07:56:30;;;;;;;3.83;1.80;;;;;;;;;;5012573;28;20050;-66
2022/11/07 07:58:56;;;;;;;4.82;1.92;;;;;;;;;;5011834;28;20054;-66
2022/11/07 08:01:23;;;;;;;9.40;2.50;;;;;;;;;;5012560;28;20096;-67
2022/11/07 08:03:50;;;;;;;3.55;1.95;;;;;;;;;;5012707;28;20429;-66
2022/11/07 08:06:28;;;;;;;3.90;1.75;;;;;;;;;;5012481;28;20049;-66
2022/11/07 08:08:55;;;;;;;3.72;1.65;;;;;;;;;;5011838;28;20516;-66
2022/11/07 08:11:21;;;;;;;2.53;1.38;;;;;;;;;;5012204;28;20054;-68
2022/11/07 08:13:48;;;;;;;2.58;1.30;;;;;;;;;;5012541;28;20464;-66
2022/11/07 08:16:14;;;;;;;3.72;2.00;;;;;;;;;;5012190;28;20501;-66
2022/11/07 08:18:41;;;;;;;6.30;2.05;;;;;;;;;;5011743;28;20124;-67
2022/11/07 08:21:08;;;;;;;4.60;1.45;;;;;;;;;;5012103;28;20049;-68
2022/11/07 08:23:35;;;;;;;5.45;2.50;;;;;;;;;;5012190;28;20104;-66
2022/11/07 08:26:03;;;;;;;5.28;1.30;;;;;;;;;;5012223;28;20057;-67
2022/11/07 08:28:32;;;;;;;4.45;1.30;;;;;;;;;;5011089;28;20103;-70
2022/11/07 08:31:01;;;;;;;3.60;1.08;;;;;;;;;;5007434;28;20509;-66
2022/11/07 08:33:28;;;;;;;5.00;1.40;;;;;;;;;;4992733;28;20054;-67
2022/11/07 08:35:56;;;;;;;5.97;1.92;;;;;;;;;;4992733;28;20054;-66
2022/11/07 08:38:23;;;;;;;3.25;1.40;;;;;;;;;;4991942;28;20536;-66
2022/11/07 08:40:49;;;;;;;3.55;1.35;;;;;;;;;;5008111;28;20052;-66
2022/11/07 08:43:17;;;;;;;2.17;1.20;;;;;;;;;;5012211;28;20049;-67
2022/11/07 08:45:45;;;;;;;3.80;1.33;;;;;;;;;;5011941;28;20107;-67
2022/11/07 08:48:12;;;;;;;3.22;1.08;;;;;;;;;;5011494;28;20123;-66
2022/11/07 08:50:39;;;;;;;8.02;1.65;;;;;;;;;;5011830;28;20058;-67
2022/11/07 08:53:06;;;;;;;3.20;1.27;;;;;;;;;;5011602;28;20077;-66
2022/11/07 08:55:32;;;;;;;1.67;1.08;;;;;;;;;;5011826;28;20479;-71
2022/11/07 08:58:00;;;;;;;4.95;2.20;;;;;;;;;;5011684;28;20509;-75
2022/11/07 09:00:27;;;;;;;5.40;1.63;;;;;;;;;;5000064;28;20043;-66
2022/11/07 09:02:59;;;;;;;5.30;1.50;;;;;;;;;;4990220;28;20114;-75
2022/11/07 09:05:48;;;;;;;4.90;1.95;;;;;;;;;;4994494;28;20050;-78
2022/11/07 09:08:15;;;;;;;5.13;2.20;;;;;;;;;;5003584;28;20046;-77
2022/11/07 09:10:42;;;;;;;5.85;1.50;;;;;;;;;;5001801;28;20047;-77
2022/11/07 09:13:09;;;;;;;4.88;1.40;;;;;;;;;;4998594;28;20112;-73
2022/11/07 09:15:36;;;;;;;3.78;1.52;;;;;;;;;;5006068;28;20050;-75
2022/11/07 09:18:04;;;;;;;4.68;1.50;;;;;;;;;;5007311;28;20064;-74
2022/11/07 09:20:33;;;;;;;8.40;1.80;;;;;;;;;;5005637;28;20047;-76
2022/11/07 09:23:08;;;;;;;3.47;1.38;;;;;;;;;;4969437;28;20493;-77
2022/11/07 09:25:34;;;;;;;7.70;2.28;;;;;;;;;;4999077;28;20061;-72
2022/11/07 09:28:02;;;;;;;5.45;2.58;;;;;;;;;;4999920;28;20453;-76
2022/11/07 09:30:31;;;;;;;7.63;2.80;;;;;;;;;;4993359;28;20057;-75
2022/11/07 09:32:58;;;;;;;4.85;2.30;;;;;;;;;;4997511;28;20045;-73
2022/11/07 09:35:24;;;;;;;10.30;3.55;;;;;;;;;;5004688;28;20050;-76
2022/11/07 09:38:02;;;;;;;5.35;3.50;;;;;;;;;;5011910;28;20050;-78
2022/11/07 09:40:56;;;;;;;6.72;3.20;;;;;;;;;;4975371;28;20054;-76
2022/11/07 09:43:52;;;;;;;3.08;1.67;;;;;;;;;;4987285;28;20145;-77
2022/11/07 09:46:32;;;;;;;4.28;1.63;;;;;;;;;;5020239;28;20038;-74
2022/11/07 09:49:30;;;;;;;6.70;1.98;;;;;;;;;;4991673;28;20058;-70
2022/11/07 09:52:14;;;;;;;4.40;2.00;;;;;;;;;;5004644;28;20046;-69
2022/11/07 09:54:44;;;;;;;5.40;1.65;;;;;;;;;;5008756;28;20457;-69
2022/11/07 09:57:15;;;;;;;5.13;1.33;;;;;;;;;;4990219;28;20050;-70
2022/11/07 09:59:44;;;;;;;5.47;2.13;;;;;;;;;;4999727;28;20052;-68
2022/11/07 10:02:15;;;;;;;3.58;1.30;;;;;;;;;;5001844;28;20041;-68
2022/11/07 10:04:43;;;;;;;5.45;1.73;;;;;;;;;;5000938;28;20089;-69
2022/11/07 10:07:27;;;;;;;5.60;1.30;;;;;;;;;;5005839;28;20058;-74
2022/11/07 10:10:37;;;;;;;3.88;2.00;;;;;;;;;;4985651;28;20046;-68
2022/11/07 10:13:13;;;;;;;5.07;1.52;;;;;;;;;;5019141;28;20610;-69
2022/11/07 10:15:52;;;;;;;5.28;1.38;;;;;;;;;;5003312;28;20045;-69
2022/11/07 10:18:38;;;;;;;4.07;1.00;;;;;;;;;;5001538;28;20053;-68
2022/11/07 10:21:35;;;;;;;2.80;1.10;;;;;;;;;;5003622;28;20061;-69
2022/11/07 10:24:22;;;;;;;2.42;1.10;;;;;;;;;;5000593;28;20054;-70
2022/11/07 10:26:48;;;;;;;4.80;1.20;;;;;;;;;;4999395;28;20069;-69
2022/11/07 10:29:17;;;;;;;7.75;1.10;;;;;;;;;;4999576;28;20042;-69
2022/11/07 10:32:11;;;;;;;6.80;1.70;;;;;;;;;;4997507;28;20050;-68
2022/11/07 10:34:45;;;;;;;4.35;1.30;;;;;;;;;;4999857;28;20062;-69
2022/11/07 10:37:19;;;;;;;3.65;1.50;;;;;;;;;;4993922;28;20056;-71
2022/11/07 10:39:46;;;;;;;6.55;1.10;;;;;;;;;;4999760;28;20053;-71
2022/11/07 10:42:28;;;;;;;7.68;2.22;;;;;;;;;;5000316;28;20082;-70
2022/11/07 10:44:55;;;;;;;4.03;1.27;;;;;;;;;;5001841;28;20050;-72
2022/11/07 10:47:23;;;;;;;2.83;1.10;;;;;;;;;;5008436;28;20054;-68
2022/11/07 10:50:04;;;;;;;5.53;1.20;;;;;;;;;;5008596;28;20059;-68
2022/11/07 10:52:30;;;;;;;4.28;1.40;;;;;;;;;;4987610;28;20053;-71
2022/11/07 10:55:13;;;;;;;4.95;1.38;;;;;;;;;;5002284;28;20108;-71
2022/11/07 10:57:40;;;;;;;4.47;1.40;;;;;;;;;;4999727;28;20568;-74
2022/11/07 11:00:26;;;;;;;4.85;1.40;;;;;;;;;;5001215;28;20056;-73
2022/11/07 11:02:55;;;;;;;4.95;1.33;;;;;;;;;;4984524;28;20053;-74
2022/11/07 11:05:24;;;;;;;4.82;1.40;;;;;;;;;;4996908;28;20046;-73
2022/11/07 11:07:54;;;;;;;2.85;1.05;;;;;;;;;;5003167;28;20425;-70
2022/11/07 11:10:27;;;;;;;5.80;1.20;;;;;;;;;;4999832;28;20054;-71
2022/11/07 11:12:54;;;;;;;5.63;1.50;;;;;;;;;;5003184;28;20068;-69
2022/11/07 11:15:23;;;;;;;3.08;1.00;;;;;;;;;;4982471;28;20050;-71
2022/11/07 11:18:04;;;;;;;4.15;1.02;;;;;;;;;;4979909;28;20046;-69
2022/11/07 11:20:35;;;;;;;2.83;1.05;;;;;;;;;;5004538;28;20045;-68
2022/11/07 11:23:06;;;;;;;5.38;1.20;;;;;;;;;;4993897;28;20059;-69
2022/11/07 11:25:42;;;;;;;2.40;1.17;;;;;;;;;;4994771;28;20074;-67
2022/11/07 11:28:10;;;;;;;3.00;1.20;;;;;;;;;;4998035;28;20552;-68
2022/11/07 11:30:36;;;;;;;6.22;1.45;;;;;;;;;;4986556;28;20512;-68
2022/11/07 11:33:03;;;;;;;4.95;1.85;;;;;;;;;;4997145;28;20153;-68
2022/11/07 11:35:39;;;;;;;4.20;1.40;;;;;;;;;;4995294;28;20050;-68
2022/11/07 11:38:13;;;;;;;4.63;1.02;;;;;;;;;;4983667;28;20377;-69
2022/11/07 11:40:41;;;;;;;3.33;1.23;;;;;;;;;;4998454;28;20050;-68
2022/11/07 11:43:25;;;;;;;3.63;1.10;;;;;;;;;;4993522;28;20050;-67
2022/11/07 11:46:05;;;;;;;3.95;1.23;;;;;;;;;;4998229;28;20058;-71
2022/11/07 11:48:50;;;;;;;4.07;1.20;;;;;;;;;;4998248;28;20058;-72
2022/11/07 11:51:20;;;;;;;4.28;1.25;;;;;;;;;;4999363;28;20144;-69
2022/11/07 11:53:47;;;;;;;2.97;1.10;;;;;;;;;;4995785;28;20117;-72
2022/11/07 11:56:28;;;;;;;3.38;1.10;;;;;;;;;;4997750;28;20054;-74
2022/11/07 11:58:59;;;;;;;2.72;1.23;;;;;;;;;;5001046;28;20073;-72
2022/11/07 12:01:32;;;;;;;4.13;1.40;;;;;;;;;;4999680;28;20038;-71
2022/11/07 12:04:09;;;;;;;6.10;1.33;;;;;;;;;;5003718;28;20121;-72
2022/11/07 12:06:39;;;;;;;3.67;1.20;;;;;;;;;;5004085;28;20061;-69
2022/11/07 12:09:33;;;;;;;5.57;1.30;;;;;;;;;;5007954;28;20173;-71
2022/11/07 12:12:24;;;;;;;4.17;1.10;;;;;;;;;;5003018;28;20101;-73
2022/11/07 12:15:04;;;;;;;2.38;0.80;;;;;;;;;;5006907;28;20050;-73
2022/11/07 12:17:44;;;;;;;4.80;1.00;;;;;;;;;;5003673;28;20057;-73
2022/11/07 12:20:35;;;;;;;2.70;1.08;;;;;;;;;;4997775;28;20053;-74
2022/11/07 12:23:23;;;;;;;4.55;0.73;;;;;;;;;;4987382;28;20404;-74
2022/11/07 12:26:11;;;;;;;3.33;0.73;;;;;;;;;;4998712;28;20058;-75
2022/11/07 12:28:48;;;;;;;2.55;1.00;;;;;;;;;;5016196;28;20050;-74
2022/11/07 12:31:31;;;;;;;3.35;1.08;;;;;;;;;;4999791;28;20497;-75
2022/11/07 12:34:32;;;;;;;4.38;1.50;;;;;;;;;;5002275;28;20107;-76
2022/11/07 12:37:16;;;;;;;5.68;1.38;;;;;;;;;;5000366;28;20497;-73
2022/11/07 12:40:10;;;;;;;5.50;0.90;;;;;;;;;;4997181;28;20073;-72
2022/11/07 12:42:57;;;;;;;3.72;0.98;;;;;;;;;;5000349;28;20054;-73
2022/11/07 12:45:45;;;;;;;3.13;0.80;;;;;;;;;;4993418;28;20073;-72
2022/11/07 12:48:18;;;;;;;3.35;1.00;;;;;;;;;;4998476;28;20174;-70
2022/11/07 12:50:50;;;;;;;2.72;0.60;;;;;;;;;;4997516;28;20058;-74
2022/11/07 12:53:42;;;;;;;3.83;1.45;;;;;;;;;;4997282;28;20182;-72
2022/11/07 12:56:12;;;;;;;2.90;1.52;;;;;;;;;;4999873;28;20096;-70
2022/11/07 12:58:40;;;;;;;4.22;1.00;;;;;;;;;;4989835;28;20046;-72
2022/11/07 13:01:06;;;;;;;6.90;1.67;;;;;;;;;;4999893;28;20049;-72
2022/11/07 13:03:58;;;;;;;7.25;1.35;;;;;;;;;;5000874;28;20394;-71
2022/11/07 13:06:44;;;;;;;4.40;1.00;;;;;;;;;;5003290;28;20496;-73
2022/11/07 13:09:39;;;;;;;3.83;1.00;;;;;;;;;;4995978;28;20054;-70
2022/11/07 13:12:20;;;;;;;3.72;1.10;;;;;;;;;;5012754;28;20046;-72
2022/11/07 13:14:46;;;;;;;1.73;1.02;;;;;;;;;;5003157;28;20127;-71
2022/11/07 13:17:18;;;;;;;3.47;1.02;;;;;;;;;;4994973;28;20489;-71
2022/11/07 13:20:00;;;;;;;3.03;1.42;;;;;;;;;;5004593;28;20054;-72
2022/11/07 13:22:35;;;;;;;3.25;1.02;;;;;;;;;;5012972;28;20095;-69
2022/11/07 13:25:23;;;;;;;2.90;0.93;;;;;;;;;;5003416;28;20051;-77
2022/11/07 13:28:39;;;;;;;2.75;1.20;;;;;;;;;;4996631;28;20136;-72
2022/11/07 13:31:30;;;;;;;3.70;1.75;;;;;;;;;;4990848;28;20417;-72
2022/11/07 13:34:19;;;;;;;4.47;1.10;;;;;;;;;;5008034;28;20057;-69
2022/11/07 13:36:47;;;;;;;2.97;1.20;;;;;;;;;;5003505;28;20066;-71
2022/11/07 13:39:14;;;;;;;2.97;0.93;;;;;;;;;;4997809;28;20050;-76
2022/11/07 13:41:45;;;;;;;3.45;1.35;;;;;;;;;;5009584;28;20038;-73
2022/11/07 13:44:33;;;;;;;4.72;1.20;;;;;;;;;;5005259;28;20050;-72
2022/11/07 13:47:04;;;;;;;3.58;0.63;;;;;;;;;;5000180;28;20062;-68
2022/11/07 13:49:38;;;;;;;3.10;0.73;;;;;;;;;;5002822;28;20058;-71
2022/11/07 13:52:16;;;;;;;7.95;1.15;;;;;;;;;;5001021;28;20091;-73
2022/11/07 13:54:53;;;;;;;;;;;;;;;;;;4975607;28;20063;-71
2022/11/07 13:57:23;;;;;;;3.60;1.15;;;;;;;;;;5000576;28;19973;-74
2022/11/07 13:59:56;;;;;;;3.53;0.80;;;;;;;;;;5001450;28;20533;-70
2022/11/07 14:02:28;;;;;;;2.70;0.93;;;;;;;;;;4998209;28;20058;-70
2022/11/07 14:05:02;;;;;;;2.63;0.90;;;;;;;;;;5003396;28;20054;-69
2022/11/07 14:07:56;;;;;;;1.95;0.70;;;;;;;;;;5002445;28;20115;-74
2022/11/07 14:10:38;;;;;;;3.15;1.23;;;;;;;;;;5011442;28;20054;-72
2022/11/07 14:13:09;;;;;;;6.13;1.15;;;;;;;;;;5010558;28;20056;-73
2022/11/07 14:15:43;;;;;;;8.30;1.63;;;;;;;;;;5003364;28;20046;-73
2022/11/07 14:18:13;;;;;;;2.20;1.02;;;;;;;;;;4999800;28;20057;-71
2022/11/07 14:20:51;;;;;;;3.53;1.02;;;;;;;;;;4989345;28;20046;-74
2022/11/07 14:23:24;;;;;;;3.42;1.17;;;;;;;;;;5019557;28;20101;-67
2022/11/07 14:25:56;;;;;;;4.93;2.03;;;;;;;;;;4999988;28;20061;-67
2022/11/07 14:28:43;;;;;;;4.93;1.05;;;;;;;;;;5000269;28;20509;-72
2022/11/07 14:31:29;;;;;;;3.10;1.10;;;;;;;;;;4998954;28;20050;-67
2022/11/07 14:33:59;;;;;;;4.07;0.98;;;;;;;;;;5004130;28;20100;-72
2022/11/07 14:36:27;;;;;;;4.43;1.08;;;;;;;;;;5001496;28;20057;-73
2022/11/07 14:38:59;;;;;;;5.55;1.20;;;;;;;;;;5003458;28;20065;-75
2022/11/07 14:41:26;;;;;;;4.35;1.42;;;;;;;;;;5004821;28;20104;-72
2022/11/07 14:43:53;;;;;;;3.70;1.63;;;;;;;;;;4981224;28;20085;-74
2022/11/07 14:46:21;;;;;;;4.80;1.95;;;;;;;;;;5002286;28;20042;-74
2022/11/07 14:48:50;;;;;;;5.82;1.35;;;;;;;;;;4996830;28;20062;-73
2022/11/07 14:51:21;;;;;;;2.95;1.30;;;;;;;;;;4999270;28;20077;-69
2022/11/07 14:53:52;;;;;;;3.20;1.40;;;;;;;;;;4990389;28;20049;-72
2022/11/07 14:56:22;;;;;;;5.38;1.73;;;;;;;;;;5001473;28;20053;-75
2022/11/07 14:58:54;;;;;;;4.68;1.40;;;;;;;;;;4992566;28;20056;-74
2022/11/07 15:01:50;;;;;;;3.50;1.33;;;;;;;;;;4964190;28;20047;-72
2022/11/07 15:04:50;;;;;;;3.65;1.42;;;;;;;;;;5013073;28;20094;-69
2022/11/07 15:07:16;;;;;;;2.60;0.95;;;;;;;;;;5005498;28;20046;-69
2022/11/07 15:09:43;;;;;;;3.03;0.90;;;;;;;;;;4999200;28;20061;-69
2022/11/07 15:12:24;;;;;;;2.25;0.70;;;;;;;;;;4997950;28;20098;-69
2022/11/07 15:15:02;;;;;;;4.97;0.68;;;;;;;;;;4999540;28;20422;-71
2022/11/07 15:17:29;;;;;;;3.83;0.80;;;;;;;;;;5002885;28;20054;-69